Time;durP1;ratioP1;P1;durP2;ratioP2;P2;SDS_P1;SDS_P2;PMS_P1;PMS_P2;Temp;Humidity;BMP_temperature;BMP_pressure;BME280_temperature;BME280_humidity;BME280_pressure;Samples;Min_cycle;Max_cycle;Signal;HPM_P1;HPM_P2
2021/09/15 00:01:26;;;;;;;6.43;5.65;;;;;;;18.89;71.92;95500.38;6168324;23;20164;-77
2021/09/15 00:03:51;;;;;;;7.75;6.22;;;;;;;18.87;72.53;95499.78;6166495;23;20167;-78
2021/09/15 00:06:16;;;;;;;6.40;5.80;;;;;;;18.89;72.78;95494.31;6144246;23;20183;-76
2021/09/15 00:08:42;;;;;;;6.50;5.88;;;;;;;18.91;72.69;95500.22;6143093;23;20216;-77
2021/09/15 00:11:07;;;;;;;8.80;6.47;;;;;;;18.83;73.80;95503.03;6168684;23;20156;-77
2021/09/15 00:13:32;;;;;;;8.25;5.93;;;;;;;18.89;74.57;95495.13;6142045;23;20155;-78
2021/09/15 00:15:58;;;;;;;6.40;5.28;;;;;;;18.87;74.96;95488.44;6141712;23;20175;-77
2021/09/15 00:18:23;;;;;;;6.22;5.68;;;;;;;18.75;76.46;95485.59;6141887;23;20506;-77
2021/09/15 00:20:48;;;;;;;9.45;6.82;;;;;;;18.65;77.71;95480.72;6165620;23;20166;-78
2021/09/15 00:23:14;;;;;;;7.65;6.20;;;;;;;18.61;78.09;95483.91;6166663;23;20167;-78
2021/09/15 00:25:39;;;;;;;8.07;6.32;;;;;;;18.53;79.20;95481.47;6141216;23;20201;-77
2021/09/15 00:28:04;;;;;;;7.35;6.50;;;;;;;18.51;79.03;95483.50;6166788;23;20214;-78
2021/09/15 00:30:30;;;;;;;7.63;6.43;;;;;;;18.45;79.94;95489.53;6166638;23;20151;-77
2021/09/15 00:32:55;;;;;;;7.53;6.45;;;;;;;18.42;80.43;95479.41;6167922;23;20151;-79
2021/09/15 00:35:20;;;;;;;10.05;6.95;;;;;;;18.36;80.08;95484.44;6142393;23;20198;-78
2021/09/15 00:37:46;;;;;;;7.35;6.65;;;;;;;18.33;80.05;95476.97;6168843;23;20175;-78
2021/09/15 00:40:11;;;;;;;8.85;6.82;;;;;;;18.28;80.68;95479.34;6169285;23;20230;-78
2021/09/15 00:42:36;;;;;;;9.35;6.38;;;;;;;18.31;80.28;95478.16;6167949;23;20186;-79
2021/09/15 00:45:03;;;;;;;7.70;6.47;;;;;;;18.31;80.05;95475.53;6167062;23;20574;-78
2021/09/15 00:47:28;;;;;;;9.50;7.07;;;;;;;18.34;80.01;95478.56;6168082;23;20167;-78
2021/09/15 00:49:54;;;;;;;7.15;6.25;;;;;;;18.27;80.12;95471.69;6169016;23;20763;-79
2021/09/15 00:52:19;;;;;;;8.98;6.35;;;;;;;18.25;80.74;95469.25;6143324;23;20159;-77
2021/09/15 00:54:44;;;;;;;7.95;7.10;;;;;;;18.17;81.45;95466.78;6166428;23;20218;-80
2021/09/15 00:57:10;;;;;;;8.70;6.32;;;;;;;18.21;80.99;95461.97;6143347;23;20163;-79
2021/09/15 00:59:35;;;;;;;7.93;5.90;;;;;;;18.20;80.68;95463.78;6143328;23;20167;-77
2021/09/15 01:02:01;;;;;;;9.40;6.85;;;;;;;18.25;80.21;95458.72;6166563;23;20175;-77
2021/09/15 01:04:26;;;;;;;7.18;6.47;;;;;;;18.31;80.72;95451.88;6141050;23;20632;-78
2021/09/15 01:06:51;;;;;;;7.85;6.25;;;;;;;18.22;80.18;95453.06;6166644;23;20151;-77
2021/09/15 01:09:17;;;;;;;8.25;6.43;;;;;;;18.18;79.89;95442.13;6166198;23;20151;-78
2021/09/15 01:11:42;;;;;;;8.13;6.63;;;;;;;18.22;80.33;95447.81;6166106;23;20152;-78
2021/09/15 01:14:10;;;;;;;7.13;6.05;;;;;;;18.16;79.83;95444.16;6166755;23;20167;-77
2021/09/15 01:16:53;;;;;;;9.23;6.25;;;;;;;18.28;79.00;95450.44;6165984;23;20171;-79
2021/09/15 01:19:21;;;;;;;6.82;6.07;;;;;;;18.24;79.21;95441.34;6166146;23;20219;-76
2021/09/15 01:21:47;;;;;;;6.90;6.30;;;;;;;18.21;79.33;95454.88;6166458;23;20151;-77
2021/09/15 01:24:12;;;;;;;7.25;6.10;;;;;;;18.23;79.23;95458.13;6165052;23;20199;-79
2021/09/15 01:26:38;;;;;;;6.50;5.80;;;;;;;18.30;78.81;95445.00;6165983;23;20178;-78
2021/09/15 01:29:03;;;;;;;8.40;5.88;;;;;;;18.29;78.55;95443.41;6165916;23;20159;-78
2021/09/15 01:31:29;;;;;;;9.00;6.20;;;;;;;18.27;78.67;95440.13;6142182;23;20168;-78
2021/09/15 01:33:54;;;;;;;6.03;5.50;;;;;;;18.24;79.13;95446.59;6165299;23;20617;-77
2021/09/15 01:36:19;;;;;;;7.10;6.25;;;;;;;18.20;79.54;95455.91;6166099;23;20182;-78
2021/09/15 01:38:45;;;;;;;7.75;6.40;;;;;;;18.18;79.46;95454.44;6166086;23;20151;-76
2021/09/15 01:41:10;;;;;;;8.25;6.68;;;;;;;18.10;79.77;95445.72;6165729;23;20159;-78
2021/09/15 01:43:35;;;;;;;6.65;6.00;;;;;;;18.14;79.46;95446.16;6168243;23;20546;-78
2021/09/15 01:46:01;;;;;;;7.32;6.50;;;;;;;18.08;79.85;95449.56;6166777;23;20187;-78
2021/09/15 01:48:26;;;;;;;8.27;6.05;;;;;;;18.07;80.06;95434.81;6168259;23;20206;-77
2021/09/15 01:50:51;;;;;;;8.30;6.55;;;;;;;18.03;80.17;95433.59;6167088;23;20170;-77
2021/09/15 01:53:17;;;;;;;9.73;6.95;;;;;;;18.03;80.01;95438.84;6167785;23;20628;-79
2021/09/15 01:55:42;;;;;;;10.52;6.38;;;;;;;17.96;80.53;95433.56;6167124;23;20245;-79
2021/09/15 01:58:10;;;;;;;11.45;7.07;;;;;;;17.91;80.91;95428.06;6167465;23;20171;-78
2021/09/15 02:00:37;;;;;;;7.18;6.47;;;;;;;17.91;80.73;95427.28;6142997;23;20174;-79
2021/09/15 02:03:02;;;;;;;9.98;7.53;;;;;;;17.90;80.72;95428.28;6167899;23;20151;-78
2021/09/15 02:05:27;;;;;;;8.40;7.60;;;;;;;17.91;80.89;95419.38;6136623;23;20233;-78
2021/09/15 02:07:53;;;;;;;9.90;6.63;;;;;;;17.89;81.02;95421.41;6161182;23;20198;-76
2021/09/15 02:10:18;;;;;;;7.55;6.72;;;;;;;17.86;81.17;95422.63;6135816;23;20167;-78
2021/09/15 02:12:43;;;;;;;7.25;6.43;;;;;;;17.85;80.99;95409.69;6159914;23;20151;-77
2021/09/15 02:15:11;;;;;;;8.95;6.43;;;;;;;17.82;80.99;95411.66;6165154;23;20175;-76
2021/09/15 02:17:37;;;;;;;7.32;6.47;;;;;;;17.82;81.15;95406.41;6169141;23;20159;-78
2021/09/15 02:20:05;;;;;;;7.47;6.78;;;;;;;17.84;80.81;95414.09;6145042;23;20155;-77
2021/09/15 02:22:30;;;;;;;6.90;6.20;;;;;;;17.81;81.22;95404.81;6143738;23;20166;-77
2021/09/15 02:24:55;;;;;;;8.07;6.93;;;;;;;17.83;80.92;95407.22;6166671;23;20183;-79
2021/09/15 02:27:21;;;;;;;8.02;6.72;;;;;;;17.79;81.26;95398.94;6167952;23;20187;-78
2021/09/15 02:29:46;;;;;;;8.35;6.57;;;;;;;17.81;80.93;95404.81;6144041;23;20171;-77
2021/09/15 02:32:11;;;;;;;7.38;6.60;;;;;;;17.80;81.35;95403.19;6168211;23;20163;-76
2021/09/15 02:34:36;;;;;;;8.73;6.30;;;;;;;17.78;81.22;95402.56;6142318;23;20159;-78
2021/09/15 02:37:02;;;;;;;7.88;6.20;;;;;;;17.79;81.09;95396.31;6168142;23;20152;-77
2021/09/15 02:39:27;;;;;;;7.93;6.35;;;;;;;17.74;81.09;95396.06;6165668;23;20233;-76
2021/09/15 02:41:52;;;;;;;7.70;5.93;;;;;;;17.74;81.63;95397.91;6143989;23;20159;-78
2021/09/15 02:44:18;;;;;;;6.57;5.82;;;;;;;17.73;80.62;95386.59;6168357;23;20514;-77
2021/09/15 02:46:43;;;;;;;8.55;6.30;;;;;;;17.72;80.53;95398.09;6168658;23;20680;-78
2021/09/15 02:49:08;;;;;;;6.65;6.03;;;;;;;17.77;80.10;95397.53;6143257;23;20218;-76
2021/09/15 02:51:34;;;;;;;6.40;5.70;;;;;;;17.74;80.08;95392.63;6169178;23;20156;-77
2021/09/15 02:53:59;;;;;;;7.15;5.80;;;;;;;17.74;79.91;95390.00;6142676;23;20169;-78
2021/09/15 02:56:24;;;;;;;8.32;6.35;;;;;;;17.79;79.99;95392.88;6167884;23;20648;-78
2021/09/15 02:58:50;;;;;;;7.78;6.05;;;;;;;17.81;80.27;95390.84;6169176;23;20570;-77
2021/09/15 03:01:15;;;;;;;7.75;5.70;;;;;;;17.86;80.06;95387.66;6169678;23;20235;-76
2021/09/15 03:03:40;;;;;;;6.72;6.13;;;;;;;17.66;80.27;95382.28;6167903;23;20155;-77
2021/09/15 03:06:05;;;;;;;7.85;5.88;;;;;;;17.70;80.46;95386.97;6167936;23;20354;-79
2021/09/15 03:08:31;;;;;;;5.95;5.45;;;;;;;17.65;81.07;95384.09;6142730;23;20162;-77
2021/09/15 03:10:56;;;;;;;7.32;6.60;;;;;;;17.69;80.74;95385.34;6143919;23;20617;-77
2021/09/15 03:13:21;;;;;;;7.97;6.90;;;;;;;17.62;81.23;95388.94;6170455;23;20167;-79
2021/09/15 03:15:47;;;;;;;7.68;6.70;;;;;;;17.59;81.64;95390.13;6167815;23;20171;-77
2021/09/15 03:18:12;;;;;;;7.38;6.55;;;;;;;17.62;81.27;95389.75;6168468;23;20151;-77
2021/09/15 03:20:38;;;;;;;7.78;6.97;;;;;;;17.55;81.80;95388.88;6143834;23;20159;-78
2021/09/15 03:23:03;;;;;;;8.00;6.90;;;;;;;17.56;82.03;95385.25;6168149;23;20156;-77
2021/09/15 03:25:28;;;;;;;8.07;7.28;;;;;;;17.52;81.28;95386.66;6143116;23;20191;-76
2021/09/15 03:27:54;;;;;;;8.48;6.95;;;;;;;17.49;82.21;95394.91;6143511;23;20166;-79
2021/09/15 03:30:19;;;;;;;7.22;6.63;;;;;;;17.47;82.31;95397.72;6143830;23;20222;-78
2021/09/15 03:32:44;;;;;;;7.15;6.50;;;;;;;17.48;82.43;95395.91;6167884;23;20161;-78
2021/09/15 03:35:10;;;;;;;8.23;6.80;;;;;;;17.48;82.46;95398.53;6144237;23;20203;-76
2021/09/15 03:37:35;;;;;;;9.48;7.32;;;;;;;17.47;82.63;95394.28;6168082;23;20167;-78
2021/09/15 03:40:00;;;;;;;8.60;7.28;;;;;;;17.43;83.28;95379.94;6171400;23;20210;-78
2021/09/15 03:42:26;;;;;;;8.52;7.07;;;;;;;17.49;83.53;95379.16;6140143;23;20636;-79
2021/09/15 03:44:51;;;;;;;8.15;7.43;;;;;;;17.52;83.30;95384.03;6158490;23;20195;-76
2021/09/15 03:47:16;;;;;;;10.25;7.65;;;;;;;17.48;84.11;95378.34;6135878;23;20163;-77
2021/09/15 03:49:42;;;;;;;10.00;7.28;;;;;;;17.40;84.87;95378.50;6160363;23;20162;-78
2021/09/15 03:52:07;;;;;;;8.75;7.95;;;;;;;17.35;85.76;95367.78;6160163;23;20158;-78
2021/09/15 03:54:34;;;;;;;8.50;7.68;;;;;;;17.33;85.75;95361.94;6160127;23;20163;-78
2021/09/15 03:57:00;;;;;;;8.02;7.20;;;;;;;17.29;86.51;95363.31;6160742;23;20262;-77
2021/09/15 03:59:25;;;;;;;8.95;8.05;;;;;;;17.21;87.56;95366.91;6136838;23;20162;-77
2021/09/15 04:01:50;;;;;;;9.02;8.13;;;;;;;17.21;87.26;95359.03;6161074;23;20159;-77
2021/09/15 04:04:15;;;;;;;11.98;7.85;;;;;;;17.32;87.61;95364.75;6160440;23;20182;-77
2021/09/15 04:06:41;;;;;;;8.52;7.63;;;;;;;17.21;87.79;95369.53;6136008;23;20534;-78
2021/09/15 04:09:07;;;;;;;8.80;7.72;;;;;;;17.37;87.88;95371.03;6160355;23;20159;-78
2021/09/15 04:11:33;;;;;;;9.18;7.97;;;;;;;17.20;88.70;95370.53;6160205;23;20238;-78
2021/09/15 04:13:58;;;;;;;10.63;7.50;;;;;;;17.12;89.03;95373.28;6159816;23;20175;-78
2021/09/15 04:16:23;;;;;;;7.63;6.93;;;;;;;17.26;88.28;95382.88;6160614;23;20529;-77
2021/09/15 04:18:49;;;;;;;10.02;7.50;;;;;;;17.19;88.88;95394.34;6162588;23;20158;-78
2021/09/15 04:21:14;;;;;;;10.88;7.88;;;;;;;17.12;89.52;95396.91;6162561;23;20159;-78
2021/09/15 04:31:38;;;;;;;7.90;7.13;;;;;;;17.02;89.76;95401.69;6163270;23;20147;-79
2021/09/15 04:34:04;;;;;;;8.07;7.32;;;;;;;17.03;89.91;95405.13;6136063;23;20160;-77
2021/09/15 04:36:29;;;;;;;10.35;9.18;;;;;;;17.02;90.13;95406.13;6161070;23;20182;-79
2021/09/15 04:38:54;;;;;;;9.18;8.27;;;;;;;17.04;89.69;95407.53;6158639;23;20207;-79
2021/09/15 04:41:19;;;;;;;11.70;8.20;;;;;;;17.01;89.84;95415.00;6162033;23;20159;-79
2021/09/15 04:43:45;;;;;;;9.70;8.60;;;;;;;17.00;90.32;95406.31;6160864;23;20155;-77
2021/09/15 04:46:10;;;;;;;8.82;8.00;;;;;;;17.10;89.96;95408.59;6160670;23;20201;-78
2021/09/15 04:48:37;;;;;;;9.18;8.23;;;;;;;17.05;90.20;95406.56;6136937;23;20246;-80
2021/09/15 04:51:03;;;;;;;10.05;8.07;;;;;;;17.05;89.66;95401.31;6161078;23;20559;-77
2021/09/15 04:53:28;;;;;;;8.30;7.20;;;;;;;17.13;89.35;95403.78;6136143;23;20159;-78
2021/09/15 04:55:53;;;;;;;9.60;7.78;;;;;;;17.04;89.56;95410.16;6162141;23;20214;-78
2021/09/15 04:58:19;;;;;;;8.88;7.47;;;;;;;17.03;89.97;95405.94;6161396;23;20583;-77
2021/09/15 05:00:44;;;;;;;8.20;7.30;;;;;;;17.12;89.51;95403.97;6136747;23;20206;-78
2021/09/15 05:03:09;;;;;;;9.23;7.55;;;;;;;17.10;89.37;95401.53;6160362;23;20167;-76
2021/09/15 05:05:34;;;;;;;8.68;7.85;;;;;;;17.07;89.79;95404.56;6161784;23;20183;-78
2021/09/15 05:08:00;;;;;;;8.13;7.30;;;;;;;17.10;90.12;95413.84;6161713;23;20160;-77
2021/09/15 05:10:25;;;;;;;10.20;6.97;;;;;;;17.10;89.48;95404.16;6138154;23;20497;-79
2021/09/15 05:12:55;;;;;;;7.60;6.82;;;;;;;17.15;89.59;95408.84;6165014;23;20155;-78
2021/09/15 05:15:21;;;;;;;7.72;6.90;;;;;;;17.09;89.58;95399.13;6164141;23;20203;-77
2021/09/15 05:17:46;;;;;;;7.35;6.65;;;;;;;17.00;90.29;95411.56;6143368;23;20561;-77
2021/09/15 05:20:16;;;;;;;8.25;6.38;;;;;;;17.03;90.11;95416.41;6163763;23;20151;-78
2021/09/15 05:22:41;;;;;;;9.60;6.18;;;;;;;17.17;88.87;95406.84;6161763;23;20602;-77
2021/09/15 05:25:07;;;;;;;6.63;5.78;;;;;;;17.23;89.09;95409.53;6162021;23;20190;-78
2021/09/15 05:27:33;;;;;;;7.63;6.00;;;;;;;17.24;89.21;95402.47;6162213;23;20159;-78
2021/09/15 05:29:58;;;;;;;6.45;5.55;;;;;;;17.13;90.05;95408.22;6162097;23;20593;-76
2021/09/15 05:32:23;;;;;;;7.53;6.38;;;;;;;17.12;90.34;95409.22;6161230;23;20183;-78
2021/09/15 05:34:48;;;;;;;10.77;6.25;;;;;;;17.15;89.93;95408.84;6159562;23;20172;-78
2021/09/15 05:37:14;;;;;;;7.13;6.50;;;;;;;17.20;90.06;95409.88;6161246;23;20182;-79
2021/09/15 05:39:39;;;;;;;7.18;6.00;;;;;;;17.12;90.29;95409.22;6135199;23;20503;-78
2021/09/15 05:42:04;;;;;;;8.73;6.75;;;;;;;17.08;90.44;95419.28;6161301;23;20163;-79
2021/09/15 05:44:30;;;;;;;6.25;5.60;;;;;;;17.20;90.15;95409.88;6159029;23;20183;-80
2021/09/15 05:46:55;;;;;;;6.68;6.07;;;;;;;17.08;90.25;95421.09;6160488;23;20151;-80
2021/09/15 05:49:20;;;;;;;8.70;7.07;;;;;;;17.14;90.51;95415.06;6161833;23;20290;-78
2021/09/15 05:51:46;;;;;;;8.60;6.43;;;;;;;16.98;90.73;95419.63;6162664;23;20740;-79
2021/09/15 05:54:11;;;;;;;9.35;6.57;;;;;;;16.99;91.24;95423.06;6161687;23;20158;-78
2021/09/15 05:56:38;;;;;;;9.85;6.70;;;;;;;17.02;91.86;95420.03;6161265;23;20183;-80
2021/09/15 05:59:03;;;;;;;8.02;6.78;;;;;;;16.95;92.20;95420.00;6160686;23;20151;-80
2021/09/15 06:01:29;;;;;;;6.43;5.70;;;;;;;16.99;91.94;95420.44;6163718;23;20242;-79
2021/09/15 06:03:54;;;;;;;10.77;6.55;;;;;;;16.99;92.12;95418.63;6158435;23;20171;-78
2021/09/15 06:06:20;;;;;;;7.45;6.38;;;;;;;16.98;92.17;95421.44;6159737;23;20263;-80
2021/09/15 06:08:45;;;;;;;7.03;5.85;;;;;;;17.04;91.97;95425.09;6161071;23;20158;-77
2021/09/15 06:11:11;;;;;;;7.20;5.82;;;;;;;17.01;92.39;95422.88;6161186;23;20144;-77
2021/09/15 06:13:36;;;;;;;7.95;6.35;;;;;;;16.98;92.36;95409.13;6160252;23;20166;-79
2021/09/15 06:16:05;;;;;;;9.50;6.40;;;;;;;17.03;92.06;95413.78;6161853;23;20180;-76
2021/09/15 06:18:31;;;;;;;8.15;6.22;;;;;;;17.05;92.60;95424.94;6138517;23;20169;-80
2021/09/15 06:20:56;;;;;;;7.32;6.50;;;;;;;17.06;92.73;95425.75;6169575;23;20171;-78
2021/09/15 06:23:21;;;;;;;8.27;6.53;;;;;;;17.10;92.50;95427.78;6169191;23;20171;-79
2021/09/15 06:25:47;;;;;;;7.72;6.20;;;;;;;17.14;92.71;95428.19;6145786;23;20187;-80
2021/09/15 06:28:13;;;;;;;9.80;6.78;;;;;;;17.11;92.81;95418.09;6145980;23;20160;-80
2021/09/15 06:30:40;;;;;;;10.55;7.18;;;;;;;17.09;92.99;95418.28;6144992;23;20163;-79
2021/09/15 06:33:06;;;;;;;7.30;6.50;;;;;;;17.12;92.65;95420.53;6169491;23;20151;-80
2021/09/15 06:35:31;;;;;;;9.50;6.68;;;;;;;17.16;92.55;95415.72;6145569;23;20203;-79
2021/09/15 06:37:57;;;;;;;8.75;7.22;;;;;;;17.21;93.05;95408.88;6171569;23;20159;-78
2021/09/15 06:40:22;;;;;;;8.75;6.28;;;;;;;17.20;93.04;95417.75;6169064;23;20151;-78
2021/09/15 06:42:47;;;;;;;6.97;6.28;;;;;;;17.18;92.82;95413.72;6171286;23;20170;-79
2021/09/15 06:45:12;;;;;;;8.48;6.53;;;;;;;17.25;92.04;95399.63;6169418;23;20191;-80
2021/09/15 06:47:39;;;;;;;9.70;7.10;;;;;;;17.26;92.53;95398.63;6169660;23;20203;-80
2021/09/15 06:50:05;;;;;;;7.70;6.65;;;;;;;17.32;92.41;95404.13;6170876;23;20570;-81
2021/09/15 06:52:30;;;;;;;10.75;7.97;;;;;;;17.18;92.97;95398.78;6169553;23;20144;-78
2021/09/15 06:54:56;;;;;;;8.32;7.25;;;;;;;17.12;92.99;95404.78;6170712;23;20183;-79
2021/09/15 06:57:21;;;;;;;8.15;6.82;;;;;;;17.20;93.40;95407.25;6169400;23;20155;-77
2021/09/15 06:59:46;;;;;;;9.38;7.35;;;;;;;17.24;92.99;95398.03;6169145;23;20496;-80
2021/09/15 07:02:12;;;;;;;8.30;7.30;;;;;;;17.18;93.34;95398.78;6171548;23;20163;-78
2021/09/15 07:04:37;;;;;;;11.88;7.18;;;;;;;17.22;93.22;95409.69;6170313;23;20187;-81
2021/09/15 07:07:02;;;;;;;10.85;7.53;;;;;;;17.34;93.24;95402.91;6146350;23;20541;-79
2021/09/15 07:09:28;;;;;;;7.90;7.13;;;;;;;17.44;92.88;95405.19;6170213;23;20167;-78
2021/09/15 07:11:54;;;;;;;9.63;7.03;;;;;;;17.43;92.57;95414.06;6146478;23;20163;-79
2021/09/15 07:14:19;;;;;;;9.98;7.75;;;;;;;17.36;93.03;95421.09;6168782;23;20227;-78
2021/09/15 07:16:44;;;;;;;8.77;7.43;;;;;;;17.38;92.85;95432.19;6169877;23;20223;-79
2021/09/15 07:19:09;;;;;;;8.55;7.38;;;;;;;17.32;92.84;95425.94;6170035;23;20171;-80
2021/09/15 07:21:35;;;;;;;8.80;7.65;;;;;;;17.31;93.29;95426.91;6169447;23;20179;-79
2021/09/15 07:24:01;;;;;;;8.88;7.32;;;;;;;17.26;93.41;95427.50;6169188;23;20166;-80
2021/09/15 07:26:26;;;;;;;8.13;7.35;;;;;;;17.35;93.40;95424.72;6145103;23;20586;-79
2021/09/15 07:28:51;;;;;;;9.90;7.43;;;;;;;17.28;93.25;95427.31;6169016;23;20516;-78
2021/09/15 07:31:17;;;;;;;8.38;7.38;;;;;;;17.22;94.13;95430.69;6143560;23;20159;-79
2021/09/15 07:33:42;;;;;;;8.30;7.47;;;;;;;17.30;93.46;95412.16;6142684;23;20186;-78
2021/09/15 07:36:08;;;;;;;9.15;7.30;;;;;;;17.35;93.53;95422.91;6166438;23;20177;-80
2021/09/15 07:38:34;;;;;;;8.00;6.78;;;;;;;17.30;93.36;95427.09;6167840;23;20640;-78
2021/09/15 07:41:00;;;;;;;8.80;6.65;;;;;;;17.28;93.40;95430.72;6138003;23;20155;-80
2021/09/15 07:43:25;;;;;;;7.88;7.18;;;;;;;17.32;93.72;95433.81;6166131;23;20151;-78
2021/09/15 07:45:51;;;;;;;8.77;6.97;;;;;;;17.33;93.85;95439.88;6164702;23;20183;-78
2021/09/15 07:48:16;;;;;;;7.88;6.35;;;;;;;17.35;93.92;95450.97;6140025;23;20160;-79
2021/09/15 07:50:41;;;;;;;8.80;7.28;;;;;;;17.40;93.96;95445.94;6164626;23;20167;-79
2021/09/15 07:53:07;;;;;;;8.27;7.20;;;;;;;17.52;93.53;95436.53;6140865;23;20186;-78
2021/09/15 07:55:32;;;;;;;8.68;6.63;;;;;;;17.48;93.34;95435.28;6166417;23;20625;-78
2021/09/15 07:57:57;;;;;;;8.05;6.88;;;;;;;17.53;93.11;95435.53;6138788;23;20572;-78
2021/09/15 08:00:23;;;;;;;10.82;6.25;;;;;;;17.68;93.14;95438.06;6163600;23;20184;-79
2021/09/15 08:02:48;;;;;;;6.30;5.72;;;;;;;17.70;91.11;95431.63;6166655;23;20174;-78
2021/09/15 08:05:15;;;;;;;7.30;6.07;;;;;;;17.88;90.22;95432.91;6168527;23;20194;-80
2021/09/15 08:07:40;;;;;;;7.82;5.75;;;;;;;18.05;89.96;95436.84;6142417;23;20163;-79
2021/09/15 08:10:06;;;;;;;7.43;5.85;;;;;;;18.22;89.62;95448.63;6166633;23;20155;-78
2021/09/15 08:12:31;;;;;;;6.25;5.60;;;;;;;18.20;88.86;95445.38;6142611;23;20219;-80
2021/09/15 08:14:57;;;;;;;6.32;5.43;;;;;;;18.40;87.75;95454.13;6142582;23;20232;-78
2021/09/15 08:17:22;;;;;;;6.25;5.53;;;;;;;18.37;87.32;95454.50;6167453;23;20152;-79
2021/09/15 08:19:47;;;;;;;7.43;5.60;;;;;;;18.47;87.68;95466.50;6174315;23;20187;-79
2021/09/15 08:22:13;;;;;;;7.88;6.30;;;;;;;18.44;87.73;95454.53;6172931;23;20234;-78
2021/09/15 08:24:38;;;;;;;7.57;6.60;;;;;;;18.54;87.10;95460.22;6167435;23;20630;-80
2021/09/15 08:27:03;;;;;;;7.35;6.03;;;;;;;18.50;87.75;95460.84;6145510;23;20167;-78
2021/09/15 08:29:29;;;;;;;8.38;6.22;;;;;;;18.65;87.39;95449.16;6167856;23;20198;-80
2021/09/15 08:31:54;;;;;;;9.10;5.97;;;;;;;18.66;87.01;95448.16;6164854;23;20151;-78
2021/09/15 08:34:19;;;;;;;6.93;5.88;;;;;;;18.61;86.56;95441.84;6163889;23;20156;-79
2021/09/15 08:36:45;;;;;;;6.32;5.65;;;;;;;18.68;85.73;95446.13;6165834;23;20179;-80
2021/09/15 08:39:10;;;;;;;6.78;5.30;;;;;;;18.93;84.64;95442.94;6166700;23;20166;-79
2021/09/15 08:41:35;;;;;;;8.32;5.40;;;;;;;18.99;85.36;95454.44;6116691;23;20167;-78
2021/09/15 08:44:01;;;;;;;6.88;5.40;;;;;;;19.10;84.21;95445.97;6164522;23;20155;-79
2021/09/15 08:46:27;;;;;;;5.82;5.28;;;;;;;18.77;85.06;95452.00;6163409;23;20191;-78
2021/09/15 08:48:52;;;;;;;6.03;5.32;;;;;;;18.72;84.94;95458.88;6139574;23;20154;-77
2021/09/15 08:51:23;;;;;;;7.97;5.80;;;;;;;18.72;85.51;95457.06;6163942;23;20159;-78
2021/09/15 08:53:49;;;;;;;5.78;5.20;;;;;;;18.68;85.63;95472.44;6140506;23;20188;-78
2021/09/15 08:56:14;;;;;;;7.03;5.30;;;;;;;18.42;86.54;95477.59;6163948;23;20175;-77
2021/09/15 08:58:40;;;;;;;6.75;5.80;;;;;;;18.59;86.74;95472.78;6165172;23;20461;-78
2021/09/15 09:01:15;;;;;;;8.25;5.72;;;;;;;18.47;86.82;95466.50;6163301;23;20159;-78
2021/09/15 09:03:41;;;;;;;6.90;5.88;;;;;;;18.54;87.15;95469.94;6142672;23;20328;-79
2021/09/15 09:06:12;;;;;;;11.27;5.80;;;;;;;18.51;87.20;95475.59;6167990;23;20207;-79
2021/09/15 09:08:39;;;;;;;5.82;5.22;;;;;;;18.64;86.37;95472.97;6168720;23;20285;-80
2021/09/15 09:11:05;;;;;;;6.47;5.88;;;;;;;18.76;86.85;95479.34;6142911;23;20159;-79
2021/09/15 09:13:33;;;;;;;6.72;5.20;;;;;;;18.79;86.77;95476.28;6141867;23;20166;-78
2021/09/15 09:15:58;;;;;;;7.93;5.55;;;;;;;18.74;86.41;95473.47;6166592;23;20171;-80
2021/09/15 09:18:23;;;;;;;5.35;4.85;;;;;;;18.94;86.17;95474.28;6166010;23;20227;-79
2021/09/15 09:20:49;;;;;;;7.32;5.85;;;;;;;18.83;85.89;95477.53;6168125;23;20210;-78
2021/09/15 09:23:15;;;;;;;8.23;5.47;;;;;;;18.75;87.03;95467.19;6167150;23;20162;-79
2021/09/15 09:25:58;;;;;;;6.57;5.65;;;;;;;18.85;86.30;95470.25;6160581;23;20190;-78
2021/09/15 09:28:26;;;;;;;6.65;5.78;;;;;;;18.81;86.47;95474.25;6137342;23;20170;-78
2021/09/15 09:30:54;;;;;;;8.65;5.80;;;;;;;18.81;86.85;95471.63;6165382;23;20155;-79
2021/09/15 09:33:20;;;;;;;8.18;5.78;;;;;;;18.78;87.05;95466.78;6136335;23;20206;-79
2021/09/15 09:35:45;;;;;;;8.90;5.82;;;;;;;18.80;84.75;95472.66;6159813;23;20178;-79
2021/09/15 09:38:15;;;;;;;11.60;5.45;;;;;;;18.79;85.42;95468.41;6164449;23;20230;-77
2021/09/15 09:41:03;;;;;;;6.25;5.35;;;;;;;19.15;84.02;95468.03;6163041;23;20208;-78
2021/09/15 09:43:30;;;;;;;7.93;5.22;;;;;;;19.06;85.23;95466.59;6162187;23;20170;-77
2021/09/15 09:45:56;;;;;;;7.88;5.28;;;;;;;19.21;85.85;95463.78;6137451;23;20191;-78
2021/09/15 09:48:39;;;;;;;7.28;5.40;;;;;;;19.22;85.04;95466.19;6162230;23;20233;-78
2021/09/15 09:51:31;;;;;;;10.70;5.72;;;;;;;19.30;84.94;95464.38;6161639;23;20155;-77
2021/09/15 09:54:12;;;;;;;6.18;5.25;;;;;;;19.47;84.91;95466.38;6136388;23;20170;-77
2021/09/15 09:56:40;;;;;;;5.78;5.15;;;;;;;19.55;83.58;95467.19;6161650;23;20197;-77
2021/09/15 09:59:05;;;;;;;5.20;4.70;;;;;;;19.46;82.02;95466.59;6161183;23;20155;-79
2021/09/15 10:01:48;;;;;;;6.60;4.82;;;;;;;19.60;81.22;95470.03;6136659;23;20202;-77
2021/09/15 10:04:15;;;;;;;5.65;4.22;;;;;;;19.67;81.26;95473.47;6160369;23;20143;-77
2021/09/15 10:06:41;;;;;;;4.90;4.40;;;;;;;19.72;80.68;95478.94;6160580;23;20178;-78
2021/09/15 10:09:07;;;;;;;5.00;4.10;;;;;;;19.83;79.59;95478.31;6137960;23;20170;-78
2021/09/15 10:11:39;;;;;;;5.13;4.13;;;;;;;20.01;80.47;95473.19;6161762;23;20219;-76
2021/09/15 10:14:08;;;;;;;5.53;3.85;;;;;;;20.00;78.50;95474.22;6161009;23;20178;-77
2021/09/15 10:16:38;;;;;;;4.40;4.00;;;;;;;20.01;77.49;95478.47;6160823;23;20538;-79
2021/09/15 10:19:06;;;;;;;5.20;3.97;;;;;;;19.91;75.98;95470.19;6162232;23;20182;-78
2021/09/15 10:21:34;;;;;;;4.72;3.85;;;;;;;19.98;75.64;95470.97;6140392;23;20191;-79
2021/09/15 10:23:59;;;;;;;4.97;3.22;;;;;;;20.17;75.62;95468.47;6162691;23;20159;-79
2021/09/15 10:26:26;;;;;;;3.72;3.25;;;;;;;20.15;75.64;95470.53;6164469;23;20183;-78
2021/09/15 10:29:28;;;;;;;4.05;3.65;;;;;;;20.13;75.33;95468.06;6139618;23;20170;-76
2021/09/15 10:32:06;;;;;;;4.68;4.20;;;;;;;20.14;75.05;95464.41;6140077;23;20147;-78
2021/09/15 10:37:03;;;;;;;4.38;3.10;;;;;;;19.92;72.81;95466.53;6171223;23;20191;-79
2021/09/15 10:39:29;;;;;;;4.35;3.10;;;;;;;20.20;71.83;95468.06;6173651;23;20160;-79
2021/09/15 10:41:54;;;;;;;5.00;3.45;;;;;;;20.05;73.14;95470.94;6149940;23;20170;-78
2021/09/15 10:44:21;;;;;;;8.50;3.97;;;;;;;19.89;72.64;95459.03;6148650;23;20210;-79
2021/09/15 10:46:47;;;;;;;4.25;3.15;;;;;;;20.09;72.96;95469.50;6149457;23;20255;-79
2021/09/15 10:49:21;;;;;;;5.60;3.70;;;;;;;19.85;72.50;95470.19;6150386;23;20155;-79
2021/09/15 10:52:06;;;;;;;9.02;3.17;;;;;;;19.94;72.81;95469.75;6164931;23;20139;-78
2021/09/15 10:54:52;;;;;;;3.17;2.80;;;;;;;20.12;72.00;95468.28;6163865;23;20953;-78
2021/09/15 10:57:27;;;;;;;4.05;3.10;;;;;;;20.16;72.71;95472.13;6163337;23;20146;-78
2021/09/15 10:59:54;;;;;;;3.20;2.90;;;;;;;19.83;72.98;95467.78;6163311;23;20500;-77
2021/09/15 11:02:41;;;;;;;5.60;3.15;;;;;;;19.99;70.71;95472.59;6140047;23;20183;-77
2021/09/15 11:05:25;;;;;;;6.07;3.53;;;;;;;19.89;71.07;95459.03;6142471;23;20191;-80
2021/09/15 11:07:50;;;;;;;3.83;3.20;;;;;;;20.16;71.23;95451.84;6162704;23;20159;-78
2021/09/15 11:10:33;;;;;;;7.20;3.10;;;;;;;20.15;71.81;95457.34;6164368;23;20166;-80
2021/09/15 11:13:03;;;;;;;5.38;2.90;;;;;;;20.41;72.06;95464.28;6162634;23;20672;-79
2021/09/15 11:15:30;;;;;;;6.20;3.28;;;;;;;20.11;70.63;95467.47;6168610;23;20198;-78
2021/09/15 11:17:56;;;;;;;6.53;3.60;;;;;;;20.39;70.75;95464.50;6141389;23;20164;-78
2021/09/15 11:20:30;;;;;;;7.18;3.33;;;;;;;20.15;70.74;95460.78;6141367;23;20171;-78
2021/09/15 11:22:56;;;;;;;3.97;2.40;;;;;;;19.93;70.00;95457.59;6140950;23;20163;-79
2021/09/15 11:25:25;;;;;;;2.65;2.45;;;;;;;20.11;70.04;95456.94;6139726;23;20187;-78
2021/09/15 11:28:09;;;;;;;3.58;2.80;;;;;;;19.86;69.10;95462.06;6165724;23;20159;-77
2021/09/15 11:30:57;;;;;;;2.70;2.50;;;;;;;19.83;68.46;95462.50;6168217;23;20230;-78
2021/09/15 11:33:35;;;;;;;2.75;2.53;;;;;;;19.69;68.39;95458.28;6164702;23;20143;-77
2021/09/15 11:36:04;;;;;;;3.88;2.40;;;;;;;19.75;68.42;95439.81;6138036;23;20176;-79
2021/09/15 11:38:32;;;;;;;4.47;2.30;;;;;;;19.85;68.28;95434.09;6162499;23;20199;-78
2021/09/15 11:41:12;;;;;;;3.03;2.42;;;;;;;19.87;68.11;95434.72;6159484;23;20159;-79